Aviation Digital Data Service (ADDS)

Output produced by METARs form (0418 UTC 04 March 2015)
found at http://www.aviationweather.gov/adds/metars/
 
KCRQ 040353Z 00000KT 8SM CLR 14/08 A2992 RMK AO2 SLP130 T01390078
KCRQ 040253Z 00000KT 10SM CLR 14/07 A2990 RMK AO2 SLP124 T01390072 53008
KCRQ 040153Z 31004KT 10SM CLR 14/07 A2988 RMK AO2 SLP118 T01440067
KCRQ 040053Z VRB04KT 10SM CLR 16/06 A2987 RMK AO2 SLP115 T01560061
KCRQ 032327Z 0400/0424 VRB04KT P6SM SKC 
     FM042000 29008KT P6SM SKC